Perry, MO

8:12 AM CST on November 26, 2014 (GMT -0600)
North Eastern Ralls County WB2UFO | Change Station
CLOSE
Current Station
Personal Weather Station
Location: New London, MO
Elevation: 700 ft
Nearby Weather Stations

Elev 700 ft 39.64 °N, 91.44 °W | Updated 1 minute ago

Overcast
Overcast
31.3 °F
Feels Like 27 °F
N
4.0
Wind Variable Wind from SE
Gusts 9.0 mph

Today
High -- | Low -- °F
--% Chance of Precip.
Yesterday
High -- | Low -- °F
Precip. -- in
7:02 AM 4:45 PM
Waxing Crescent, 20% visible
Pressure 30.02 in
Visibility 8.0 miles
Clouds Overcast 7500 ft
Windchill 27 °F
Dew Point 26 °F
Humidity 82%
Rainfall 0.00 in
Snow Depth Not available.
UV 0 out of 12
Pollen .10 out of 12
Air Quality Not available.
Flu Activity Not available.
METAR KUIN 261354Z AUTO 14009KT 8SM OVC075 M02/M04 A2999 RMK AO2 SLP164 T10171044

More Conditions Fewer Conditions

Pressure 30.02 in
Visibility 8.0 miles
Clouds Overcast 7500 ft
Windchill 27 °F
Dew Point 26 °F
Humidity 82%
Rainfall 0.00 in
Snow Depth Not available.
UV 0 out of 12
Pollen .10 out of 12
Air Quality Not available.
Flu Activity Not available.
METAR KUIN 261354Z AUTO 14009KT 8SM OVC075 M02/M04 A2999 RMK AO2 SLP164 T10171044

More Conditions Fewer Conditions

10-Day Weather Forecast

Almanac

Astronomy

Nov. 26, 2014 Rise Set
Actual Time
Civil Twilight
Nautical Twilight
Astronomical Twilight
Moon
Length of Visible Light
Length of Day
Tomorrow will be .
, % of the Moon is Illuminated

Today's Extremes

State Highs State Lows

Community

WunderPhotos

Upload Photos

1,773,751 photos uploaded!

WunderBlogs® & News

Nearby

Air Quality

  Air Quality AQ Index Pollutant
Not available.

Snow Depth

Station Depth Elevation

Earthquake Activity

City Distance Mag. Time & Date
Minimum magnitude displayed is 2.5.

Coastal Water Temperatures

Place Temperature

Nearby Weather Stations